createdAt,value
2023-04-11T00:01:49.934Z,94663.97
2023-04-11T00:04:20.614Z,94610.75
2023-04-11T00:06:48.452Z,94618.69
2023-04-11T00:09:16.836Z,94635.50
2023-04-11T00:11:44.115Z,94610.25
2023-04-11T00:14:12.597Z,94628.84
2023-04-11T00:16:39.863Z,94627.63
2023-04-11T00:19:07.464Z,94600.84
2023-04-11T00:21:35.716Z,94617.19
2023-04-11T00:24:03.159Z,94594.88
2023-04-11T00:26:29.932Z,94585.59
2023-04-11T00:28:56.903Z,94606.03
2023-04-11T00:31:23.895Z,94636.84
2023-04-11T00:33:50.668Z,94614.19
2023-04-11T00:36:17.857Z,94550.22
2023-04-11T00:38:46.720Z,94586.59
2023-04-11T00:41:13.592Z,94580.09
2023-04-11T00:43:40.789Z,94619.00
2023-04-11T00:46:09.835Z,94563.47
2023-04-11T00:48:36.927Z,94591.78
2023-04-11T00:51:04.285Z,94574.59
2023-04-11T00:53:33.143Z,94564.75
2023-04-11T00:56:00.679Z,94530.34
2023-04-11T00:58:28.733Z,94498.44
2023-04-11T01:00:55.739Z,94505.56
2023-04-11T01:03:22.929Z,94510.91
2023-04-11T01:05:54.310Z,94524.66
2023-04-11T01:08:22.585Z,94513.19
2023-04-11T01:10:50.331Z,94517.47
2023-04-11T01:13:19.894Z,94493.34
2023-04-11T01:15:47.075Z,94494.22
2023-04-11T01:18:15.524Z,94514.50
2023-04-11T01:20:42.591Z,94523.44
2023-04-11T01:23:10.900Z,94532.13
2023-04-11T01:25:37.775Z,94547.94
2023-04-11T01:28:04.985Z,94565.50
2023-04-11T01:30:32.494Z,94547.91
2023-04-11T01:32:59.449Z,94555.81
2023-04-11T01:35:26.282Z,94555.06
2023-04-11T01:37:53.528Z,94540.75
2023-04-11T01:40:21.498Z,94530.06
2023-04-11T01:42:49.253Z,94527.25
2023-04-11T01:45:16.585Z,94506.44
2023-04-11T01:47:45.422Z,94529.94
2023-04-11T01:50:12.331Z,94529.41
2023-04-11T01:52:39.184Z,94505.91
2023-04-11T01:55:06.282Z,94508.19
2023-04-11T01:57:33.980Z,94526.00
2023-04-11T02:00:01.409Z,94529.28
2023-04-11T02:02:30.079Z,94499.94
2023-04-11T02:04:57.032Z,94499.56
2023-04-11T02:07:24.584Z,94546.66
2023-04-11T02:09:51.320Z,94542.63
2023-04-11T02:12:19.334Z,94554.34
2023-04-11T02:14:46.695Z,94581.53
2023-04-11T02:17:14.570Z,94528.00
2023-04-11T02:19:41.478Z,94561.09
2023-04-11T02:22:11.302Z,94532.47
2023-04-11T02:24:39.811Z,94493.88
2023-04-11T02:27:06.850Z,94446.03
2023-04-11T02:29:34.454Z,94458.53
2023-04-11T02:32:01.704Z,94472.53
2023-04-11T02:34:29.827Z,94450.44
2023-04-11T02:36:56.683Z,94481.69
2023-04-11T02:39:26.489Z,94454.94
2023-04-11T02:41:55.669Z,94461.69
2023-04-11T02:44:22.709Z,94481.28
2023-04-11T02:46:50.025Z,94450.75
2023-04-11T02:49:16.867Z,94442.97
2023-04-11T02:51:47.873Z,94406.16
2023-04-11T02:54:14.901Z,94424.88
2023-04-11T02:56:43.448Z,94402.09
2023-04-11T02:59:10.284Z,94451.03
2023-04-11T03:01:38.322Z,94398.34
2023-04-11T03:04:07.319Z,94415.38
2023-04-11T03:06:54.496Z,94423.84
2023-04-11T03:09:21.519Z,94474.56
2023-04-11T03:11:48.785Z,94395.22
2023-04-11T03:14:16.349Z,94403.84
2023-04-11T03:16:43.240Z,94385.78
2023-04-11T03:19:10.052Z,94383.06
2023-04-11T03:21:36.906Z,94410.41
2023-04-11T03:24:05.032Z,94369.50
2023-04-11T03:26:32.416Z,94391.31
2023-04-11T03:29:07.776Z,94408.22
2023-04-11T03:31:44.205Z,94416.53
2023-04-11T03:34:12.071Z,94389.06
2023-04-11T03:36:40.751Z,94408.03
2023-04-11T03:39:07.562Z,94392.41
2023-04-11T03:41:35.079Z,94431.72
2023-04-11T03:44:02.387Z,94392.47
2023-04-11T03:46:30.250Z,94391.16
2023-04-11T03:48:57.428Z,94337.97
2023-04-11T03:51:24.412Z,94337.06
2023-04-11T03:54:00.370Z,94358.78
2023-04-11T03:56:31.670Z,94371.19
2023-04-11T03:58:58.625Z,94374.38
2023-04-11T04:01:30.305Z,94373.84
2023-04-11T04:04:02.128Z,94339.38
2023-04-11T04:06:31.876Z,94352.53
2023-04-11T04:08:59.808Z,94419.97
2023-04-11T04:11:31.524Z,94397.41
2023-04-11T04:13:59.086Z,94352.22
2023-04-11T04:16:25.997Z,94391.13
2023-04-11T04:18:57.384Z,94374.72
2023-04-11T04:21:26.773Z,94358.94
2023-04-11T04:23:57.329Z,94391.59
2023-04-11T04:26:32.233Z,94357.31
2023-04-11T04:29:10.309Z,94319.63
2023-04-11T04:31:52.960Z,94325.88
2023-04-11T04:34:29.308Z,94325.88
2023-04-11T04:36:59.668Z,94344.94
2023-04-11T04:39:38.227Z,94371.91
2023-04-11T04:42:07.050Z,94348.34
2023-04-11T04:44:38.148Z,94372.72
2023-04-11T04:47:12.972Z,94358.41
2023-04-11T04:49:39.747Z,94366.59
2023-04-11T04:52:06.854Z,94373.66
2023-04-11T04:54:34.265Z,94367.53
2023-04-11T04:57:01.512Z,94375.50
2023-04-11T04:59:28.479Z,94366.53
2023-04-11T05:02:02.629Z,94387.00
2023-04-11T05:04:30.522Z,94363.69
2023-04-11T05:06:59.286Z,94341.56
2023-04-11T05:09:28.442Z,94366.97
2023-04-11T05:12:07.227Z,94387.38
2023-04-11T05:14:36.600Z,94410.88
2023-04-11T05:17:04.366Z,94425.19
2023-04-11T05:19:32.371Z,94417.53
2023-04-11T05:21:59.360Z,94393.53
2023-04-11T05:24:26.675Z,94415.31
2023-04-11T05:26:54.564Z,94410.66
2023-04-11T05:29:21.432Z,94427.75
2023-04-11T05:31:49.628Z,94435.88
2023-04-11T05:34:16.670Z,94443.25
2023-04-11T05:36:47.501Z,94439.09
2023-04-11T05:39:14.272Z,94421.31
2023-04-11T05:41:41.100Z,94445.69
2023-04-11T05:44:07.890Z,94451.16
2023-04-11T05:46:38.581Z,94448.22
2023-04-11T05:49:06.440Z,94428.94
2023-04-11T05:51:33.257Z,94436.41
2023-04-11T05:54:00.054Z,94440.59
2023-04-11T05:56:26.872Z,94433.75
2023-04-11T05:58:53.843Z,94427.59
2023-04-11T06:01:22.462Z,94421.69
2023-04-11T06:03:50.286Z,94411.84
2023-04-11T06:06:17.410Z,94387.81
2023-04-11T06:08:44.873Z,94385.97
2023-04-11T06:11:11.687Z,94391.63
2023-04-11T06:13:38.558Z,94401.66
2023-04-11T06:16:06.913Z,94397.41
2023-04-11T06:18:33.754Z,94405.91
2023-04-11T06:21:00.553Z,94403.88
2023-04-11T06:23:27.400Z,94413.03
2023-04-11T06:25:54.201Z,94404.47
2023-04-11T06:28:21.908Z,94409.91
2023-04-11T06:30:48.736Z,94419.06
2023-04-11T06:33:15.490Z,94417.91
2023-04-11T06:35:42.467Z,94409.19
2023-04-11T06:38:09.337Z,94432.44
2023-04-11T06:40:37.094Z,94410.34
2023-04-11T06:43:03.926Z,94407.47
2023-04-11T06:45:31.468Z,94417.38
2023-04-11T06:47:58.388Z,94420.53
2023-04-11T06:50:25.314Z,94408.53
2023-04-11T06:52:52.259Z,94427.13
2023-04-11T06:55:19.176Z,94430.44
2023-04-11T06:57:45.993Z,94414.22
2023-04-11T07:00:13.738Z,94413.28
2023-04-11T07:02:41.125Z,94416.78
2023-04-11T07:05:12.125Z,94409.78
2023-04-11T07:07:39.060Z,94422.53
2023-04-11T07:10:07.387Z,94398.00
2023-04-11T07:12:34.180Z,94417.75
2023-04-11T07:15:02.750Z,94401.97
2023-04-11T07:17:29.600Z,94430.88
2023-04-11T07:19:56.522Z,94421.69
2023-04-11T07:22:23.967Z,94429.56
2023-04-11T07:24:55.370Z,94435.44
2023-04-11T07:27:23.621Z,94442.06
2023-04-11T07:29:51.269Z,94443.53
2023-04-11T07:32:18.471Z,94439.22
2023-04-11T07:34:45.288Z,94452.97
2023-04-11T07:37:12.598Z,94457.56
2023-04-11T07:39:40.534Z,94457.81
2023-04-11T07:42:07.839Z,94447.22
2023-04-11T07:44:36.069Z,94443.72
2023-04-11T07:47:03.535Z,94459.66
2023-04-11T07:49:30.343Z,94472.66
2023-04-11T07:51:57.178Z,94467.84
2023-04-11T07:54:25.379Z,94479.72
2023-04-11T07:56:52.743Z,94468.19
2023-04-11T07:59:19.581Z,94470.59
2023-04-11T08:01:46.515Z,94500.88
2023-04-11T08:04:13.856Z,94497.31
2023-04-11T08:06:41.098Z,94499.88
2023-04-11T08:09:07.942Z,94503.75
2023-04-11T08:11:35.135Z,94517.94
2023-04-11T08:14:02.055Z,94502.03
2023-04-11T08:16:29.027Z,94514.19
2023-04-11T08:18:57.309Z,94504.13
2023-04-11T08:21:25.177Z,94503.13
2023-04-11T08:23:52.793Z,94511.75
2023-04-11T08:26:21.606Z,94518.47
2023-04-11T08:28:48.551Z,94517.44
2023-04-11T08:31:15.589Z,94513.09
2023-04-11T08:33:42.475Z,94537.31
2023-04-11T08:36:10.666Z,94534.75
2023-04-11T08:38:39.447Z,94543.19
2023-04-11T08:41:07.033Z,94546.34
2023-04-11T08:43:35.551Z,94556.47
2023-04-11T08:46:08.302Z,94565.44
2023-04-11T08:48:36.626Z,94554.84
2023-04-11T08:51:03.566Z,94558.41
2023-04-11T08:53:31.150Z,94563.97
2023-04-11T08:55:59.831Z,94569.00
2023-04-11T08:58:26.873Z,94578.72
2023-04-11T09:00:53.693Z,94570.09
2023-04-11T09:03:20.678Z,94573.13
2023-04-11T09:05:48.662Z,94593.72
2023-04-11T09:08:17.105Z,94599.28
2023-04-11T09:10:45.616Z,94578.50
2023-04-11T09:13:26.106Z,94599.56
2023-04-11T09:16:12.066Z,94590.91
2023-04-11T09:18:40.023Z,94604.50
2023-04-11T09:21:10.036Z,94602.06
2023-04-11T09:23:38.632Z,94592.59
2023-04-11T09:26:07.225Z,94593.34
2023-04-11T09:28:50.733Z,94591.72
2023-04-11T09:31:17.769Z,94590.91
2023-04-11T09:33:55.751Z,94586.13
2023-04-11T09:36:25.111Z,94586.97
2023-04-11T09:38:52.429Z,94596.22
2023-04-11T09:41:33.412Z,94599.28
2023-04-11T09:44:01.652Z,94601.75
2023-04-11T09:46:28.668Z,94586.66
2023-04-11T09:48:56.606Z,94603.03
2023-04-11T09:53:55.365Z,94604.03
2023-04-11T09:56:24.213Z,94616.75
2023-04-11T09:58:52.744Z,94615.84
2023-04-11T10:01:20.396Z,94618.03
2023-04-11T10:03:51.138Z,94616.81
2023-04-11T10:06:50.479Z,94617.28
2023-04-11T10:09:17.611Z,94628.69
2023-04-11T10:11:45.511Z,94634.53
2023-04-11T10:14:47.952Z,94634.75
2023-04-11T10:17:22.567Z,94639.88
2023-04-11T10:19:58.971Z,94648.19
2023-04-11T10:22:41.121Z,94646.66
2023-04-11T10:25:23.006Z,94649.50
2023-04-11T10:28:01.489Z,94651.50
2023-04-11T10:30:40.902Z,94656.31
2023-04-11T10:33:21.050Z,94668.50
2023-04-11T10:36:07.378Z,94665.50
2023-04-11T10:38:43.496Z,94668.88
2023-04-11T10:41:25.731Z,94675.78
2023-04-11T10:44:12.071Z,94685.69
2023-04-11T10:46:51.658Z,94670.31
2023-04-11T10:49:39.750Z,94674.72
2023-04-11T10:52:24.781Z,94676.16
2023-04-11T10:54:54.789Z,94668.28
2023-04-11T10:57:23.433Z,94677.34
2023-04-11T10:59:50.538Z,94687.56
2023-04-11T11:02:19.479Z,94694.28
2023-04-11T11:04:47.599Z,94701.66
2023-04-11T11:07:17.134Z,94682.84
2023-04-11T11:09:51.570Z,94686.84
2023-04-11T11:12:18.535Z,94695.88
2023-04-11T11:14:47.129Z,94690.81
2023-04-11T11:17:16.223Z,94708.69
2023-04-11T11:19:47.769Z,94684.91
2023-04-11T11:22:26.273Z,94684.06
2023-04-11T11:24:54.971Z,94675.03
2023-04-11T11:27:23.824Z,94699.03
2023-04-11T11:29:51.888Z,94687.53
2023-04-11T11:32:32.965Z,94688.66
2023-04-11T11:35:00.372Z,94687.75
2023-04-11T11:37:27.309Z,94707.09
2023-04-11T11:39:55.213Z,94702.97
2023-04-11T11:42:25.161Z,94696.50
2023-04-11T11:44:52.104Z,94712.50
2023-04-11T11:47:20.627Z,94707.53
2023-04-11T11:49:48.930Z,94704.38
2023-04-11T11:52:33.337Z,94708.91
2023-04-11T11:55:02.277Z,94728.38
2023-04-11T11:57:29.916Z,94726.88
2023-04-11T11:59:57.965Z,94707.03
2023-04-11T12:02:26.694Z,94724.22
2023-04-11T12:05:00.819Z,94700.25
2023-04-11T12:07:32.729Z,94722.50
2023-04-11T12:10:14.989Z,94721.81
2023-04-11T12:12:43.558Z,94722.13
2023-04-11T12:15:24.118Z,94699.16
2023-04-11T12:17:54.221Z,94698.50
2023-04-11T12:20:27.286Z,94704.34
2023-04-11T12:22:56.666Z,94710.88
2023-04-11T12:25:25.668Z,94709.78
2023-04-11T12:27:52.499Z,94692.22
2023-04-11T12:30:19.270Z,94710.41
2023-04-11T12:32:46.210Z,94685.97
2023-04-11T12:35:13.571Z,94707.19
2023-04-11T12:37:41.745Z,94688.34
2023-04-11T12:40:12.165Z,94693.69
2023-04-11T12:42:53.586Z,94712.00
2023-04-11T12:45:23.547Z,94697.03
2023-04-11T12:47:51.196Z,94729.63
2023-04-11T12:50:18.320Z,94681.22
2023-04-11T12:52:45.591Z,94719.53
2023-04-11T12:55:13.428Z,94701.44
2023-04-11T12:57:42.473Z,94671.22
2023-04-11T13:00:13.449Z,94696.22
2023-04-11T13:02:44.549Z,94715.59
2023-04-11T13:05:14.464Z,94710.44
2023-04-11T13:07:44.659Z,94708.28
2023-04-11T13:10:14.103Z,94731.66
2023-04-11T13:12:44.211Z,94697.59
2023-04-11T13:15:13.292Z,94719.50
2023-04-11T13:17:41.363Z,94709.09
2023-04-11T13:20:11.432Z,94684.72
2023-04-11T13:22:39.924Z,94697.22
2023-04-11T13:25:07.730Z,94685.09
2023-04-11T13:27:35.569Z,94692.25
2023-04-11T13:30:04.893Z,94708.59
2023-04-11T13:32:32.218Z,94656.72
2023-04-11T13:34:59.516Z,94686.63
2023-04-11T13:37:26.731Z,94698.59
2023-04-11T13:39:53.568Z,94677.19
2023-04-11T13:42:21.912Z,94696.66
2023-04-11T13:44:48.771Z,94685.09
2023-04-11T13:47:15.564Z,94700.47
2023-04-11T13:49:42.880Z,94674.50
2023-04-11T13:52:10.384Z,94687.66
2023-04-11T13:54:39.069Z,94693.59
2023-04-11T13:57:07.987Z,94682.41
2023-04-11T13:59:35.368Z,94675.63
2023-04-11T14:02:02.768Z,94667.78
2023-04-11T14:04:29.954Z,94664.13
2023-04-11T14:06:57.281Z,94695.47
2023-04-11T14:09:24.117Z,94676.78
2023-04-11T14:11:51.381Z,94662.28
2023-04-11T14:14:18.553Z,94689.66
2023-04-11T14:16:45.533Z,94661.19
2023-04-11T14:19:12.744Z,94649.63
2023-04-11T14:21:41.029Z,94638.91
2023-04-11T14:24:08.419Z,94676.88
2023-04-11T14:26:35.255Z,94620.81
2023-04-11T14:29:02.804Z,94665.22
2023-04-11T14:31:29.767Z,94666.50
2023-04-11T14:33:57.671Z,94674.97
2023-04-11T14:36:24.818Z,94661.28
2023-04-11T14:38:53.035Z,94678.75
2023-04-11T14:41:19.871Z,94662.06
2023-04-11T14:43:46.653Z,94679.97
2023-04-11T14:46:14.069Z,94657.31
2023-04-11T14:48:42.803Z,94673.66
2023-04-11T14:51:09.610Z,94668.09
2023-04-11T14:53:36.990Z,94681.88
2023-04-11T14:56:06.219Z,94668.41
2023-04-11T14:58:33.262Z,94657.63
2023-04-11T15:01:00.106Z,94665.38
2023-04-11T15:03:28.729Z,94665.84
2023-04-11T15:05:56.549Z,94669.53
2023-04-11T15:08:23.913Z,94659.56
2023-04-11T15:10:54.356Z,94668.06
2023-04-11T15:13:22.830Z,94651.81
2023-04-11T15:15:51.965Z,94652.09
2023-04-11T15:18:30.607Z,94632.22
2023-04-11T15:21:00.376Z,94636.91
2023-04-11T15:23:28.677Z,94637.19
2023-04-11T15:25:58.706Z,94647.84
2023-04-11T15:28:27.765Z,94631.94
2023-04-11T15:30:56.299Z,94622.88
2023-04-11T15:33:24.285Z,94637.19
2023-04-11T15:35:58.461Z,94619.31
2023-04-11T15:38:27.872Z,94627.91
2023-04-11T15:41:00.037Z,94643.41
2023-04-11T15:43:27.938Z,94639.72
2023-04-11T15:45:54.919Z,94626.00
2023-04-11T15:48:21.770Z,94627.91
2023-04-11T15:50:48.796Z,94637.25
2023-04-11T15:53:15.708Z,94640.13
2023-04-11T15:55:44.236Z,94636.09
2023-04-11T15:58:12.119Z,94648.25
2023-04-11T16:00:43.185Z,94602.84
2023-04-11T16:03:10.608Z,94655.19
2023-04-11T16:05:41.953Z,94649.38
2023-04-11T16:08:09.106Z,94610.38
2023-04-11T16:10:35.983Z,94628.06
2023-04-11T16:13:03.249Z,94591.53
2023-04-11T16:15:30.572Z,94635.31
2023-04-11T16:17:58.434Z,94641.84
2023-04-11T16:20:25.701Z,94624.66
2023-04-11T16:22:53.663Z,94598.31
2023-04-11T16:25:21.551Z,94609.88
2023-04-11T16:27:50.065Z,94617.41
2023-04-11T16:30:17.225Z,94624.53
2023-04-11T16:32:44.837Z,94639.59
2023-04-11T16:35:12.287Z,94606.00
2023-04-11T16:37:39.350Z,94586.47
2023-04-11T16:40:12.089Z,94605.53
2023-04-11T16:42:40.030Z,94618.53
2023-04-11T16:45:08.826Z,94617.13
2023-04-11T16:47:35.822Z,94596.06
2023-04-11T16:50:02.756Z,94598.94
2023-04-11T16:52:30.191Z,94638.25
2023-04-11T16:54:57.347Z,94599.69
2023-04-11T16:57:25.860Z,94625.44
2023-04-11T16:59:53.190Z,94629.00
2023-04-11T17:02:20.498Z,94584.50
2023-04-11T17:04:47.308Z,94612.50
2023-04-11T17:07:14.316Z,94600.31
2023-04-11T17:09:42.962Z,94599.03
2023-04-11T17:12:10.238Z,94608.91
2023-04-11T17:14:37.109Z,94612.66
2023-04-11T17:17:04.325Z,94600.41
2023-04-11T17:19:31.662Z,94637.13
2023-04-11T17:21:59.234Z,94630.69
2023-04-11T17:24:26.244Z,94622.78
2023-04-11T17:26:55.560Z,94619.63
2023-04-11T17:29:22.499Z,94621.00
2023-04-11T17:31:49.446Z,94610.94
2023-04-11T17:34:16.293Z,94634.13
2023-04-11T17:36:44.362Z,94635.19
2023-04-11T17:39:17.953Z,94613.91
2023-04-11T17:41:46.074Z,94634.88
2023-04-11T17:44:14.500Z,94620.41
2023-04-11T17:46:41.542Z,94647.47
2023-04-11T17:49:09.616Z,94654.72
2023-04-11T17:51:38.920Z,94606.84
2023-04-11T17:54:09.789Z,94623.53
2023-04-11T17:56:36.592Z,94628.31
2023-04-11T17:59:03.433Z,94618.59
2023-04-11T18:01:32.535Z,94619.22
2023-04-11T18:04:01.664Z,94616.59
2023-04-11T18:06:29.870Z,94615.41
2023-04-11T18:08:56.828Z,94637.09
2023-04-11T18:11:24.138Z,94612.97
2023-04-11T18:13:51.631Z,94616.25
2023-04-11T18:16:18.633Z,94635.59
2023-04-11T18:18:47.053Z,94625.81
2023-04-11T18:21:16.512Z,94651.00
2023-04-11T18:23:44.983Z,94641.53
2023-04-11T18:26:11.827Z,94606.16
2023-04-11T18:28:38.606Z,94635.66
2023-04-11T18:31:05.722Z,94653.78
2023-04-11T18:33:32.929Z,94676.09
2023-04-11T18:36:00.453Z,94671.47
2023-04-11T18:38:28.749Z,94683.81
2023-04-11T18:40:56.951Z,94670.88
2023-04-11T18:43:25.266Z,94660.31
2023-04-11T18:45:52.124Z,94655.06
2023-04-11T18:48:18.995Z,94646.66
2023-04-11T18:50:48.685Z,94647.47
2023-04-11T18:53:16.278Z,94670.47
2023-04-11T18:55:43.833Z,94635.38
2023-04-11T18:58:12.497Z,94651.91
2023-04-11T19:00:42.137Z,94665.72
2023-04-11T19:03:15.810Z,94670.47
2023-04-11T19:05:44.407Z,94670.66
2023-04-11T19:08:12.302Z,94665.47
2023-04-11T19:10:39.278Z,94666.94
2023-04-11T19:13:07.533Z,94663.53
2023-04-11T19:15:34.484Z,94650.03
2023-04-11T19:18:02.051Z,94657.66
2023-04-11T19:20:30.531Z,94625.00
2023-04-11T19:22:57.532Z,94658.94
2023-04-11T19:25:24.543Z,94662.13
2023-04-11T19:27:51.640Z,94644.88
2023-04-11T19:30:18.589Z,94636.94
2023-04-11T19:32:47.740Z,94663.63
2023-04-11T19:35:15.710Z,94669.16
2023-04-11T19:37:43.140Z,94656.53
2023-04-11T19:40:11.620Z,94647.28
2023-04-11T19:42:39.976Z,94635.75
2023-04-11T19:45:09.252Z,94637.13
2023-04-11T19:47:36.333Z,94654.75
2023-04-11T19:50:03.432Z,94659.69
2023-04-11T19:52:35.179Z,94575.97
2023-04-11T19:55:05.229Z,94601.72
2023-04-11T19:57:32.527Z,94613.03
2023-04-11T20:00:01.073Z,94589.84
2023-04-11T20:02:28.070Z,94612.84
2023-04-11T20:04:56.281Z,94630.19
2023-04-11T20:07:23.518Z,94624.34
2023-04-11T20:09:51.447Z,94621.28
2023-04-11T20:12:18.333Z,94652.28
2023-04-11T20:14:46.222Z,94638.31
2023-04-11T20:17:13.040Z,94639.78
2023-04-11T20:19:42.284Z,94631.41
2023-04-11T20:22:11.425Z,94654.84
2023-04-11T20:24:38.269Z,94608.50
2023-04-11T20:27:05.730Z,94623.63
2023-04-11T20:29:33.106Z,94644.31
2023-04-11T20:32:01.787Z,94660.38
2023-04-11T20:34:28.757Z,94644.97
2023-04-11T20:36:56.297Z,94584.06
2023-04-11T20:39:23.327Z,94554.13
2023-04-11T20:41:50.140Z,94583.41
2023-04-11T20:44:21.299Z,94628.28
2023-04-11T20:46:48.222Z,94640.69
2023-04-11T20:49:17.757Z,94606.72
2023-04-11T20:51:45.120Z,94630.09
2023-04-11T20:54:11.969Z,94557.06
2023-04-11T20:56:38.766Z,94633.38
2023-04-11T20:59:07.276Z,94653.88
2023-04-11T21:01:34.115Z,94571.63
2023-04-11T21:04:05.017Z,94616.28
2023-04-11T21:06:32.190Z,94618.25
2023-04-11T21:09:05.969Z,94596.75
2023-04-11T21:11:33.301Z,94633.81
2023-04-11T21:14:00.159Z,94626.78
2023-04-11T21:16:27.145Z,94620.66
2023-04-11T21:18:54.095Z,94571.88
2023-04-11T21:21:20.933Z,94613.50
2023-04-11T21:23:48.287Z,94626.38
2023-04-11T21:26:15.334Z,94594.53
2023-04-11T21:28:42.201Z,94640.88
2023-04-11T21:31:09.080Z,94618.13
2023-04-11T21:33:35.862Z,94612.19
2023-04-11T21:36:03.062Z,94587.31
2023-04-11T21:38:30.336Z,94583.81
2023-04-11T21:40:58.115Z,94578.44
2023-04-11T21:43:25.025Z,94565.72
2023-04-11T21:45:51.811Z,94530.22
2023-04-11T21:48:18.760Z,94579.75
2023-04-11T21:50:46.552Z,94595.97
2023-04-11T21:53:14.204Z,94617.09
2023-04-11T21:55:47.385Z,94626.00
2023-04-11T21:58:27.942Z,94605.09
2023-04-11T22:00:56.368Z,94586.72
2023-04-11T22:03:23.782Z,94548.28
2023-04-11T22:05:52.582Z,94541.19
2023-04-11T22:08:20.377Z,94551.22
2023-04-11T22:10:48.288Z,94568.06
2023-04-11T22:13:18.513Z,94547.44
2023-04-11T22:15:47.298Z,94529.56
2023-04-11T22:18:14.618Z,94570.84
2023-04-11T22:20:46.466Z,94524.50
2023-04-11T22:23:13.898Z,94560.72
2023-04-11T22:25:42.464Z,94507.00
2023-04-11T22:28:14.074Z,94507.84
2023-04-11T22:30:41.380Z,94532.00
2023-04-11T22:33:08.953Z,94498.38
2023-04-11T22:35:35.841Z,94506.25
2023-04-11T22:38:03.692Z,94497.81
2023-04-11T22:40:30.937Z,94497.84
2023-04-11T22:42:57.756Z,94486.41
2023-04-11T22:45:24.641Z,94539.44
2023-04-11T22:47:54.448Z,94526.34
2023-04-11T22:50:21.856Z,94505.56
2023-04-11T22:52:50.155Z,94516.50
2023-04-11T22:55:20.051Z,94491.91
2023-04-11T22:57:47.645Z,94473.31
2023-04-11T23:00:17.897Z,94469.88
2023-04-11T23:02:45.167Z,94503.91
2023-04-11T23:05:12.161Z,94494.28
2023-04-11T23:07:38.903Z,94469.28
2023-04-11T23:10:09.163Z,94495.06
2023-04-11T23:12:36.461Z,94459.72
2023-04-11T23:15:04.249Z,94493.25
2023-04-11T23:17:31.403Z,94470.44
2023-04-11T23:19:59.622Z,94474.66
2023-04-11T23:22:26.743Z,94460.09
2023-04-11T23:24:53.902Z,94451.00
2023-04-11T23:27:21.177Z,94470.31
2023-04-11T23:29:52.720Z,94437.13
2023-04-11T23:32:20.349Z,94461.50
2023-04-11T23:34:47.848Z,94429.41
2023-04-11T23:37:14.771Z,94417.50
2023-04-11T23:39:42.144Z,94415.84
2023-04-11T23:42:09.045Z,94407.00
2023-04-11T23:44:35.920Z,94419.63
2023-04-11T23:47:03.195Z,94419.06
2023-04-11T23:49:30.140Z,94417.00
2023-04-11T23:51:56.891Z,94414.53
2023-04-11T23:54:28.894Z,94425.78
2023-04-11T23:56:59.738Z,94445.75
2023-04-11T23:59:27.149Z,94420.38
